^^
Lockford-Weather Station Historical Data
 
Daily Summary for April 23, 2019 Units:  English    Metric   Both
Daily Weekly Monthly Yearly Custom
  Current: High: Low: Average:
Temperature: 43.9 °F 55.6 °F 43.9 °F 48.9 °F
Dew Point: 42.5 °F 43.4 °F 41.5 °F 42.6 °F
Humidity: 95% 95% 61% 80%
Wind Speed: 0.0mph 2.2mph 0.0mph 0.1mph
Wind Gust: 0.0mph 5.8mph - -
WindCalm - - ESE
Pressure: 30.23 in 30.26 in 30.22 in -
Precipitation: 0.00 in      
Historical Graphs
 
 
Tabular Data for April 23, 2019
Time Temperature Dew Point Pressure Wind Wind Speed Wind Gust Humidity Rainfall Rate (Hourly)
00:03 55.6 °F 42.3 °F 30.25 in Calm     61% 0.00 in
00:08 55.2 °F 42.0 °F 30.25 in Calm     61% 0.00 in
00:13 55.0 °F 41.8 °F 30.25 in Calm     61% 0.00 in
00:19 54.7 °F 41.9 °F 30.25 in West 1.6 mph 3.1 mph 62% 0.00 in
00:23 54.5 °F 41.7 °F 30.25 in Calm   3.5 mph 62% 0.00 in
00:29 54.3 °F 41.6 °F 30.25 in Calm     62% 0.00 in
00:33 54.1 °F 42.2 °F 30.25 in Calm     64% 0.00 in
00:39 53.8 °F 41.9 °F 30.25 in Calm     64% 0.00 in
00:43 53.1 °F 41.6 °F 30.26 in Calm     65% 0.00 in
00:48 52.5 °F 41.5 °F 30.25 in Calm     66% 0.00 in
00:54 52.7 °F 42.0 °F 30.26 in Calm   3.1 mph 67% 0.00 in
00:58 53.2 °F 42.9 °F 30.25 in Calm   4.6 mph 68% 0.00 in
01:04 53.2 °F 42.9 °F 30.25 in NE 2.2 mph 5.8 mph 68% 0.00 in
01:08 53.8 °F 43.1 °F 30.25 in Calm   5.8 mph 67% 0.00 in
01:14 53.2 °F 42.2 °F 30.25 in Calm     66% 0.00 in
01:18 53.1 °F 42.4 °F 30.25 in Calm     67% 0.00 in
01:24 52.5 °F 42.6 °F 30.25 in Calm   3.5 mph 69% 0.00 in
01:29 52.2 °F 42.3 °F 30.25 in Calm   3.1 mph 69% 0.00 in
01:34 52.0 °F 42.5 °F 30.25 in Calm   2.3 mph 70% 0.00 in
01:39 51.6 °F 42.2 °F 30.25 in Calm     70% 0.00 in
01:44 51.3 °F 42.2 °F 30.25 in Calm     71% 0.00 in
01:49 50.9 °F 42.2 °F 30.25 in Calm     72% 0.00 in
01:54 50.7 °F 43.1 °F 30.25 in Calm     75% 0.00 in
01:59 50.7 °F 43.4 °F 30.25 in East 1.6 mph 3.5 mph 76% 0.00 in
02:04 50.7 °F 43.1 °F 30.25 in East 0.7 mph 3.5 mph 75% 0.00 in
02:08 50.5 °F 43.3 °F 30.25 in Calm   3.5 mph 76% 0.00 in
02:14 50.4 °F 43.1 °F 30.24 in NE 2.2 mph 3.5 mph 76% 0.00 in
02:19 50.2 °F 42.9 °F 30.24 in Calm   3.5 mph 76% 0.00 in
02:24 49.8 °F 42.6 °F 30.24 in Calm     76% 0.00 in
02:29 49.6 °F 42.7 °F 30.24 in Calm     77% 0.00 in
02:34 49.3 °F 42.4 °F 30.24 in Calm     77% 0.00 in
02:39 48.9 °F 42.4 °F 30.24 in Calm     78% 0.00 in
02:44 48.6 °F 42.0 °F 30.24 in Calm     78% 0.00 in
02:49 48.4 °F 41.8 °F 30.23 in Calm     78% 0.00 in
02:53 48.2 °F 42.0 °F 30.23 in Calm     79% 0.00 in
02:59 47.8 °F 42.0 °F 30.23 in Calm     80% 0.00 in
03:03 47.8 °F 42.0 °F 30.23 in Calm     80% 0.00 in
03:09 47.3 °F 42.1 °F 30.23 in Calm     82% 0.00 in
03:13 46.9 °F 42.4 °F 30.23 in Calm     84% 0.00 in
03:19 46.8 °F 42.2 °F 30.23 in Calm     84% 0.00 in
03:23 46.6 °F 42.3 °F 30.23 in Calm     85% 0.00 in
03:29 46.8 °F 42.5 °F 30.24 in Calm     85% 0.00 in
03:34 46.8 °F 42.5 °F 30.24 in Calm     85% 0.00 in
03:39 46.6 °F 42.6 °F 30.24 in Calm     86% 0.00 in
03:44 46.6 °F 42.6 °F 30.24 in Calm     86% 0.00 in
03:49 46.4 °F 42.4 °F 30.23 in Calm     86% 0.00 in
03:54 46.2 °F 42.6 °F 30.23 in Calm     87% 0.00 in
03:58 46.4 °F 43.0 °F 30.23 in Calm     88% 0.00 in
04:03 46.2 °F 42.9 °F 30.23 in SE 0.7 mph 2.3 mph 88% 0.00 in
04:09 45.9 °F 42.5 °F 30.23 in Calm   2.3 mph 88% 0.00 in
04:14 45.9 °F 42.5 °F 30.23 in Calm     88% 0.00 in
04:19 45.7 °F 42.6 °F 30.23 in Calm     89% 0.00 in
04:24 45.5 °F 42.7 °F 30.23 in Calm     90% 0.00 in
04:29 45.5 °F 43.0 °F 30.23 in Calm     91% 0.00 in
04:34 45.3 °F 42.8 °F 30.23 in Calm     91% 0.00 in
04:38 45.3 °F 43.1 °F 30.23 in Calm     92% 0.00 in
04:43 45.1 °F 43.0 °F 30.23 in Calm     92% 0.00 in
04:48 45.0 °F 42.8 °F 30.23 in Calm     92% 0.00 in
04:53 45.0 °F 42.8 °F 30.23 in Calm     92% 0.00 in
04:58 44.8 °F 43.2 °F 30.23 in Calm     94% 0.00 in
05:03 44.8 °F 43.2 °F 30.23 in Calm     94% 0.00 in
05:08 44.4 °F 43.1 °F 30.23 in Calm     95% 0.00 in
05:13 44.8 °F 43.4 °F 30.23 in Calm   1.2 mph 95% 0.00 in
05:19 44.8 °F 43.4 °F 30.23 in Calm     95% 0.00 in
05:23 44.8 °F 43.4 °F 30.22 in Calm     95% 0.00 in
05:28 44.6 °F 43.3 °F 30.23 in Calm     95% 0.00 in
05:33 44.4 °F 43.1 °F 30.22 in Calm     95% 0.00 in
05:38 44.1 °F 42.7 °F 30.22 in Calm     95% 0.00 in
05:43 43.9 °F 42.5 °F 30.23 in Calm     95% 0.00 in
Klamath Falls Weather
Compliments of Weather Underground - 2 mb